Portada
METAR-TAF:

METAR-TAF

Aeroports :

Carcassona, França

latitud: 43-13N, longitud: 002-19E, altitud: 130 m

Observació

L'informe es va fer fa 14 hores i 52 minuts, a les 05:00 UTC
Vent 5 kt del Oest/Sud-Oest, variant entre Sud-Oest i Oest/Nord-Oest
Temperatura 19°C
Humitat 73%
Pressió 1018 hPa
Visibilitat 10 km o més
sense núvols per sota de 1500 mi sense presència de cumulonimbus.

METAR: LFMK 210500Z AUTO 25005KT 220V290 CAVOK 19/14 Q1018 NOSIG

Hora: 21:52 (19:52 UTC)

Pronòstic

L'informe es va fer fa 17 hores i 52 minuts, a les 02:00 UTC
Pronòstic vàlid del 21 a les 03 UTC al 22 a les 03 UTC
Vent 10 kt del Oest
Visibilitat 10 km o més
sense núvols per sota de 1500 mi sense presència de cumulonimbus.

TAF: LFMK 210200Z 2103/2203 27010KT CAVOK

Observacions i pronòstics meteorològics de més de 4000 aeroports (METAR i TAF).

Les estacions disponibles són els punts grocs i vermells al mapa.

Posi el ratolí al punt desitjat per veure el nom de l'estació.

Feu clic per veure les observacions i els pronòstics meteorològics.

Per canviar el mapa: feu clic els botons verds amb una creu de color negre per apropar; al botó verd amb un guió per allunyar la imatge; o en les fletxes verdes per a mapes adjacents.


METAR-TAF: